Time;durP1;ratioP1;P1;durP2;ratioP2;P2;SDS_P1;SDS_P2;PMS_P1;PMS_P2;Temp;Humidity;BMP_temperature;BMP_pressure;BME280_temperature;BME280_humidity;BME280_pressure;Samples;Min_cycle;Max_cycle;Signal;HPM_P1;HPM_P2
2023/04/19 00:00:42;;;;;;;9.43;6.40;;;9.20;99.90;;;;;;5137873;27;20203;-82
2023/04/19 00:03:09;;;;;;;7.70;6.20;;;9.20;99.90;;;;;;5119239;27;20228;-81
2023/04/19 00:05:37;;;;;;;8.40;6.83;;;9.20;99.90;;;;;;5119088;27;20169;-82
2023/04/19 00:08:03;;;;;;;7.43;6.43;;;9.20;99.90;;;;;;5137044;27;20199;-82
2023/04/19 00:10:28;;;;;;;6.87;6.00;;;9.20;99.90;;;;;;5118919;27;20181;-82
2023/04/19 00:12:54;;;;;;;8.30;6.30;;;9.20;99.90;;;;;;5119288;27;20186;-82
2023/04/19 00:15:20;;;;;;;7.73;6.17;;;9.20;99.90;;;;;;5118913;27;20261;-82
2023/04/19 00:17:45;;;;;;;8.90;6.00;;;9.30;99.90;;;;;;5116346;27;20237;-81
2023/04/19 00:20:12;;;;;;;7.27;5.93;;;9.30;99.90;;;;;;5110077;27;20193;-82
2023/04/19 00:22:38;;;;;;;8.37;6.43;;;9.20;99.90;;;;;;5135074;27;20193;-82
2023/04/19 00:25:04;;;;;;;8.13;6.93;;;9.30;99.90;;;;;;5110778;27;20162;-82
2023/04/19 00:27:29;;;;;;;8.10;6.87;;;9.30;99.90;;;;;;5137394;27;20259;-82
2023/04/19 00:29:56;;;;;;;7.63;6.53;;;9.30;99.90;;;;;;5119124;27;20195;-82
2023/04/19 00:32:22;;;;;;;9.33;6.70;;;9.30;99.90;;;;;;5118800;27;20174;-82
2023/04/19 00:34:48;;;;;;;8.40;7.13;;;9.20;99.90;;;;;;5118595;27;20175;-82
2023/04/19 00:37:13;;;;;;;8.93;7.30;;;9.20;99.90;;;;;;5137295;27;20255;-82
2023/04/19 00:39:39;;;;;;;9.97;7.20;;;9.20;99.90;;;;;;5114162;28;20175;-82
2023/04/19 00:42:05;;;;;;;8.57;6.97;;;9.10;99.90;;;;;;5132903;27;20268;-83
2023/04/19 00:44:30;;;;;;;7.97;6.80;;;9.10;99.90;;;;;;5137131;27;20576;-81
2023/04/19 00:46:56;;;;;;;10.10;7.50;;;9.10;99.90;;;;;;5137024;27;20276;-81
2023/04/19 00:49:23;;;;;;;8.30;7.40;;;9.20;99.90;;;;;;5118472;27;20203;-81
2023/04/19 00:51:49;;;;;;;10.07;8.00;;;9.10;99.90;;;;;;5136634;27;20186;-81
2023/04/19 00:54:16;;;;;;;10.00;8.63;;;9.20;99.90;;;;;;5136768;27;20549;-81
2023/04/19 00:56:43;;;;;;;11.13;8.70;;;9.20;99.90;;;;;;5118348;27;20234;-83
2023/04/19 00:59:09;;;;;;;10.43;8.17;;;9.20;99.90;;;;;;5118758;27;20221;-82
2023/04/19 01:01:34;;;;;;;11.03;8.80;;;9.20;99.90;;;;;;5118464;27;20260;-81
2023/04/19 01:04:01;;;;;;;9.97;8.80;;;9.20;99.90;;;;;;5120917;27;20225;-82
2023/04/19 01:06:28;;;;;;;11.33;8.90;;;9.10;99.90;;;;;;5140039;27;20209;-82
2023/04/19 01:08:54;;;;;;;14.50;9.90;;;9.10;99.90;;;;;;5140020;27;20177;-83
2023/04/19 01:11:21;;;;;;;11.50;9.13;;;9.10;99.90;;;;;;5139943;27;20245;-82
2023/04/19 01:13:47;;;;;;;11.70;9.13;;;9.10;99.90;;;;;;5121452;27;20281;-82
2023/04/19 01:16:12;;;;;;;13.27;9.80;;;9.10;99.90;;;;;;5121989;27;20261;-83
2023/04/19 01:18:39;;;;;;;12.93;10.13;;;9.10;99.90;;;;;;5117343;28;20626;-81
2023/04/19 01:21:06;;;;;;;13.83;9.57;;;9.10;99.90;;;;;;5117182;27;20215;-82
2023/04/19 01:23:31;;;;;;;14.30;10.93;;;9.10;99.90;;;;;;5140147;27;20190;-82
2023/04/19 01:25:57;;;;;;;11.70;10.30;;;9.20;99.90;;;;;;5122174;27;20172;-82
2023/04/19 01:28:23;;;;;;;14.27;10.57;;;9.20;99.90;;;;;;5123370;27;20282;-83
2023/04/19 01:30:52;;;;;;;14.03;10.63;;;9.10;99.90;;;;;;5122664;27;20203;-81
2023/04/19 01:33:19;;;;;;;13.80;11.00;;;9.10;99.90;;;;;;5142343;27;20249;-81
2023/04/19 01:35:45;;;;;;;13.67;10.50;;;9.10;99.90;;;;;;5141741;27;20188;-82
2023/04/19 01:38:11;;;;;;;15.10;10.67;;;9.10;99.90;;;;;;5142773;27;20194;-82
2023/04/19 01:40:36;;;;;;;16.47;11.23;;;9.10;99.90;;;;;;5142436;27;20181;-81
2023/04/19 01:43:02;;;;;;;13.87;10.40;;;9.00;99.90;;;;;;5124194;27;20212;-81
2023/04/19 01:45:27;;;;;;;14.77;11.20;;;9.00;99.90;;;;;;5124539;27;20177;-81
2023/04/19 01:47:54;;;;;;;14.00;10.53;;;9.00;99.90;;;;;;5124881;27;20194;-82
2023/04/19 01:50:20;;;;;;;12.53;10.63;;;9.00;99.90;;;;;;5143063;27;20299;-81
2023/04/19 01:52:46;;;;;;;13.40;10.33;;;9.00;99.90;;;;;;5124662;27;20212;-81
2023/04/19 01:55:11;;;;;;;14.37;10.47;;;8.90;99.90;;;;;;5143311;27;20177;-82
2023/04/19 01:57:37;;;;;;;12.37;10.53;;;8.80;99.90;;;;;;5140476;27;20173;-82
2023/04/19 02:00:03;;;;;;;12.90;9.87;;;8.80;99.90;;;;;;5134841;27;20182;-83
2023/04/19 02:02:29;;;;;;;13.50;10.17;;;8.80;99.90;;;;;;5116693;27;20208;-82
2023/04/19 02:04:54;;;;;;;12.77;10.00;;;8.80;99.90;;;;;;5115852;27;20185;-82
2023/04/19 02:07:20;;;;;;;13.70;10.03;;;8.80;99.90;;;;;;5117064;27;20205;-81
2023/04/19 02:09:45;;;;;;;11.20;9.63;;;8.80;99.90;;;;;;5135000;27;20242;-82
2023/04/19 02:12:11;;;;;;;13.07;9.90;;;8.80;99.90;;;;;;5116627;27;20189;-82
2023/04/19 02:14:36;;;;;;;12.60;9.57;;;8.80;99.90;;;;;;5134976;27;20696;-83
2023/04/19 02:17:02;;;;;;;14.80;10.03;;;8.80;99.90;;;;;;5134879;27;20566;-82
2023/04/19 02:19:28;;;;;;;13.07;10.10;;;8.90;99.90;;;;;;5134934;27;20173;-82
2023/04/19 02:21:56;;;;;;;11.57;9.33;;;8.90;99.90;;;;;;5116545;27;20177;-82
2023/04/19 02:24:23;;;;;;;12.97;9.33;;;8.80;99.90;;;;;;5116210;27;20194;-82
2023/04/19 02:26:49;;;;;;;13.70;9.60;;;8.80;99.90;;;;;;5116280;27;20202;-81
2023/04/19 02:29:15;;;;;;;12.40;9.67;;;8.80;99.90;;;;;;5116297;27;20178;-81
2023/04/19 02:31:41;;;;;;;10.93;9.03;;;8.80;99.90;;;;;;5134983;27;20174;-82
2023/04/19 02:34:07;;;;;;;11.50;9.00;;;8.80;99.90;;;;;;5134947;27;20192;-82
2023/04/19 02:36:32;;;;;;;11.17;8.50;;;8.70;99.90;;;;;;5116597;28;20272;-82
2023/04/19 02:38:58;;;;;;;13.03;8.67;;;8.70;99.90;;;;;;5116615;28;20221;-82
2023/04/19 02:41:23;;;;;;;12.37;8.47;;;8.80;99.90;;;;;;5135117;27;20178;-81
2023/04/19 02:43:49;;;;;;;11.63;8.70;;;8.80;99.90;;;;;;5135754;27;20208;-82
2023/04/19 02:46:15;;;;;;;10.10;7.83;;;8.70;99.90;;;;;;5135038;28;20204;-82
2023/04/19 02:48:40;;;;;;;11.03;7.73;;;8.70;99.90;;;;;;5116750;28;20272;-82
2023/04/19 02:51:06;;;;;;;10.70;7.80;;;8.70;99.90;;;;;;5135130;28;20169;-82
2023/04/19 02:53:32;;;;;;;9.63;7.70;;;8.80;99.90;;;;;;5135171;28;20197;-82
2023/04/19 02:55:58;;;;;;;9.77;7.43;;;8.80;99.90;;;;;;5116793;28;20229;-82
2023/04/19 02:58:23;;;;;;;11.23;7.33;;;8.80;99.90;;;;;;5116853;28;20244;-82
2023/04/19 03:00:49;;;;;;;10.30;7.67;;;8.70;99.90;;;;;;5135359;28;20180;-82
2023/04/19 03:03:15;;;;;;;9.60;7.63;;;8.70;99.90;;;;;;5134959;28;20193;-82
2023/04/19 03:05:40;;;;;;;10.10;7.87;;;8.70;99.90;;;;;;5117411;28;20180;-82
2023/04/19 03:08:06;;;;;;;10.27;7.10;;;8.60;99.90;;;;;;5134990;28;20202;-81
2023/04/19 03:10:31;;;;;;;9.00;6.77;;;8.60;99.90;;;;;;5134842;28;20256;-81
2023/04/19 03:12:57;;;;;;;9.37;7.33;;;8.50;99.90;;;;;;5116988;28;20190;-82
2023/04/19 03:15:22;;;;;;;11.13;7.63;;;8.50;99.90;;;;;;5127597;27;20265;-82
2023/04/19 03:17:48;;;;;;;9.03;6.90;;;8.50;99.90;;;;;;5140394;27;20184;-81
2023/04/19 03:20:15;;;;;;;9.60;7.17;;;8.50;99.90;;;;;;5121552;27;20180;-82
2023/04/19 03:22:41;;;;;;;10.50;7.73;;;8.60;99.90;;;;;;5140878;27;20197;-81
2023/04/19 03:25:07;;;;;;;11.73;8.23;;;8.60;99.90;;;;;;5140687;27;20187;-81
2023/04/19 03:27:36;;;;;;;9.83;7.40;;;8.60;99.90;;;;;;5121470;27;20207;-82
2023/04/19 03:30:02;;;;;;;9.63;8.00;;;8.60;99.90;;;;;;5121226;27;20176;-82
2023/04/19 03:32:27;;;;;;;10.00;7.97;;;8.60;99.90;;;;;;5121766;27;20200;-82
2023/04/19 03:34:53;;;;;;;11.30;8.67;;;8.60;99.90;;;;;;5122395;27;20198;-82
2023/04/19 03:37:18;;;;;;;10.47;8.50;;;8.50;99.90;;;;;;5141386;27;20574;-82
2023/04/19 03:39:44;;;;;;;10.80;8.47;;;8.50;99.90;;;;;;5140663;27;20198;-83
2023/04/19 03:42:09;;;;;;;11.40;8.27;;;8.50;99.90;;;;;;5122333;27;20176;-79
2023/04/19 03:44:35;;;;;;;13.93;8.80;;;8.50;99.90;;;;;;5123156;27;20661;-82
2023/04/19 03:47:01;;;;;;;11.37;8.57;;;8.60;99.90;;;;;;5122349;27;20248;-82
2023/04/19 03:49:26;;;;;;;13.30;9.73;;;8.60;99.90;;;;;;5122358;27;20258;-81
2023/04/19 03:51:52;;;;;;;11.40;8.80;;;8.50;99.90;;;;;;5122623;27;20196;-81
2023/04/19 03:54:17;;;;;;;12.30;8.90;;;8.60;99.90;;;;;;5122895;27;20567;-82
2023/04/19 03:56:43;;;;;;;12.43;8.70;;;8.60;99.90;;;;;;5122856;27;20225;-82
2023/04/19 03:59:08;;;;;;;11.97;9.13;;;8.70;99.90;;;;;;5114101;27;20181;-82
2023/04/19 04:01:40;;;;;;;13.93;9.30;;;8.70;99.90;;;;;;5141759;27;20735;-82
2023/04/19 04:04:08;;;;;;;12.03;8.23;;;8.70;99.90;;;;;;5142398;27;20714;-82
2023/04/19 04:06:34;;;;;;;11.03;8.13;;;8.70;99.90;;;;;;5124264;27;20197;-82
2023/04/19 04:09:00;;;;;;;9.37;7.50;;;8.60;99.90;;;;;;5142575;27;20179;-82
2023/04/19 04:11:26;;;;;;;9.27;7.20;;;8.60;99.90;;;;;;5138770;27;20186;-82
2023/04/19 04:13:52;;;;;;;9.50;7.27;;;8.60;99.90;;;;;;5136316;27;20248;-82
2023/04/19 04:16:17;;;;;;;7.57;6.20;;;8.50;99.90;;;;;;5134109;27;20166;-81
2023/04/19 04:18:43;;;;;;;8.27;6.07;;;8.60;99.90;;;;;;5143734;27;20174;-82
2023/04/19 04:21:08;;;;;;;11.13;6.27;;;8.60;99.90;;;;;;5116402;28;20195;-81
2023/04/19 04:23:34;;;;;;;7.63;5.60;;;8.60;99.10;;;;;;5126304;27;20188;-83
2023/04/19 04:26:01;;;;;;;9.43;5.77;;;8.50;99.90;;;;;;5143878;27;20181;-82
2023/04/19 04:28:27;;;;;;;6.90;5.60;;;8.50;55.10;;;;;;5143031;27;20178;-82
2023/04/19 04:30:56;;;;;;;7.93;5.67;;;8.50;46.30;;;;;;5125429;27;20176;-82
2023/04/19 04:33:25;;;;;;;5.57;4.97;;;8.50;1.00;;;;;;5144578;27;20192;-82
2023/04/19 04:35:52;;;;;;;6.67;5.20;;;8.50;1.00;;;;;;5144196;27;20174;-82
2023/04/19 04:38:17;;;;;;;6.67;4.90;;;8.50;1.00;;;;;;5144306;27;20256;-81
2023/04/19 04:40:47;;;;;;;6.83;4.77;;;8.50;1.00;;;;;;5117136;27;20201;-82
2023/04/19 04:43:13;;;;;;;6.70;5.00;;;8.50;1.00;;;;;;5131723;22;20250;-82
2023/04/19 04:45:39;;;;;;;6.77;4.80;;;8.40;1.00;;;;;;5076152;28;20179;-82
2023/04/19 04:48:04;;;;;;;5.17;4.43;;;8.40;1.00;;;;;;5076608;28;20203;-83
2023/04/19 04:50:30;;;;;;;5.83;4.33;;;8.30;1.00;;;;;;5076335;28;20665;-82
2023/04/19 04:52:55;;;;;;;5.80;4.47;;;8.20;1.00;;;;;;5076314;28;20221;-82
2023/04/19 04:55:21;;;;;;;5.10;4.57;;;8.20;1.00;;;;;;5076946;28;20175;-82
2023/04/19 04:57:47;;;;;;;5.67;4.40;;;8.20;1.00;;;;;;5076736;28;20182;-82
2023/04/19 05:00:13;;;;;;;5.47;4.17;;;8.10;1.00;;;;;;5076872;28;20183;-82
2023/04/19 05:02:38;;;;;;;5.30;4.17;;;8.10;1.00;;;;;;5059062;28;20173;-82
2023/04/19 05:05:04;;;;;;;5.70;4.50;;;8.10;1.00;;;;;;5059313;28;20188;-82
2023/04/19 05:07:30;;;;;;;5.47;4.57;;;8.10;1.00;;;;;;5076429;28;20198;-86
2023/04/19 05:09:55;;;;;;;5.23;4.13;;;8.10;1.00;;;;;;5058484;28;20171;-84
2023/04/19 05:12:21;;;;;;;4.73;3.67;;;8.10;1.00;;;;;;5077145;28;20174;-85
2023/04/19 05:14:46;;;;;;;4.97;3.97;;;8.20;1.00;;;;;;5045562;28;20615;-85
2023/04/19 05:17:12;;;;;;;4.27;3.87;;;8.10;99.90;;;;;;5064903;28;20177;-85
2023/04/19 05:19:37;;;;;;;5.20;3.90;;;8.10;1.00;;;;;;5075930;28;20181;-84
2023/04/19 05:22:03;;;;;;;6.33;4.37;;;8.00;1.00;;;;;;5076131;28;20180;-85
2023/04/19 05:24:28;;;;;;;9.13;4.20;;;8.00;1.00;;;;;;5076147;28;20206;-85
2023/04/19 05:26:55;;;;;;;5.57;3.90;;;8.00;99.90;;;;;;5094394;28;20196;-87
2023/04/19 05:29:20;;;;;;;6.07;4.47;;;8.00;1.00;;;;;;5094131;28;20164;-86
2023/04/19 05:31:46;;;;;;;5.83;4.23;;;8.00;99.90;;;;;;5093753;28;20764;-85
2023/04/19 05:34:11;;;;;;;5.30;4.13;;;7.90;99.90;;;;;;5093702;28;20190;-84
2023/04/19 05:36:37;;;;;;;5.93;4.20;;;8.00;1.00;;;;;;5075689;28;20225;-84
2023/04/19 05:39:02;;;;;;;6.80;4.50;;;7.90;99.90;;;;;;5067950;28;20229;-84
2023/04/19 05:41:28;;;;;;;5.73;4.70;;;7.90;99.90;;;;;;5084566;28;20555;-84
2023/04/19 05:43:54;;;;;;;6.73;4.33;;;7.80;99.90;;;;;;5069869;28;20310;-84
2023/04/19 05:46:19;;;;;;;6.40;4.60;;;7.80;99.90;;;;;;5064053;28;20206;-84
2023/04/19 05:48:45;;;;;;;7.03;4.73;;;7.90;99.90;;;;;;5073803;28;20162;-82
2023/04/19 05:51:11;;;;;;;5.20;4.30;;;7.90;1.00;;;;;;5063235;28;20175;-83
2023/04/19 05:53:36;;;;;;;6.03;4.40;;;8.00;99.90;;;;;;5074926;28;20611;-83
2023/04/19 05:56:02;;;;;;;5.63;4.37;;;7.90;99.90;;;;;;5075373;28;20176;-82
2023/04/19 05:58:27;;;;;;;6.27;4.70;;;8.00;99.90;;;;;;5075586;28;20204;-85
2023/04/19 06:00:53;;;;;;;5.27;4.20;;;8.10;99.90;;;;;;5092875;28;20188;-86
2023/04/19 06:03:18;;;;;;;5.63;4.60;;;8.30;1.00;;;;;;5069648;28;20196;-82
2023/04/19 06:05:44;;;;;;;7.57;4.63;;;8.50;30.60;;;;;;5068263;28;20226;-85
2023/04/19 06:08:10;;;;;;;6.73;4.57;;;8.40;99.90;;;;;;5074928;28;20199;-83
2023/04/19 06:10:36;;;;;;;5.47;4.40;;;8.30;99.90;;;;;;5093938;28;20533;-83
2023/04/19 06:13:02;;;;;;;4.77;4.20;;;8.30;99.90;;;;;;5089048;28;20248;-85
2023/04/19 06:15:29;;;;;;;6.00;4.57;;;8.30;99.90;;;;;;5066825;28;20180;-84
2023/04/19 06:17:55;;;;;;;6.13;4.63;;;8.40;1.00;;;;;;5054944;28;20188;-82
2023/04/19 06:20:20;;;;;;;5.37;4.57;;;8.40;99.90;;;;;;5073312;28;20174;-84
2023/04/19 06:22:48;;;;;;;5.70;4.30;;;8.50;99.90;;;;;;5073562;28;20192;-85
2023/04/19 06:25:13;;;;;;;5.93;4.50;;;8.50;1.00;;;;;;5074182;28;20178;-85
2023/04/19 06:27:39;;;;;;;5.90;4.47;;;8.50;1.00;;;;;;5055510;28;20258;-85
2023/04/19 06:30:05;;;;;;;6.60;4.30;;;8.50;1.00;;;;;;5073552;28;20211;-84
2023/04/19 06:32:31;;;;;;;6.37;4.80;;;8.60;1.00;;;;;;5074239;28;20263;-87
2023/04/19 06:34:56;;;;;;;5.27;4.47;;;8.70;90.60;;;;;;5055837;28;20232;-86
2023/04/19 06:37:22;;;;;;;6.47;4.47;;;8.60;1.00;;;;;;5056048;28;20218;-85
2023/04/19 06:39:48;;;;;;;5.73;4.40;;;8.70;1.00;;;;;;5056129;28;20185;-85
2023/04/19 06:42:14;;;;;;;6.10;4.63;;;8.80;1.00;;;;;;5074429;28;20182;-85
2023/04/19 06:44:39;;;;;;;6.93;4.60;;;8.80;1.00;;;;;;5073361;28;20312;-86
2023/04/19 06:47:05;;;;;;;6.37;4.70;;;8.80;1.00;;;;;;5072031;28;20290;-87
2023/04/19 06:49:30;;;;;;;5.10;4.60;;;8.70;1.00;;;;;;5054151;28;20178;-87
2023/04/19 06:51:57;;;;;;;5.57;4.60;;;8.70;1.00;;;;;;5071764;28;20233;-86
2023/04/19 06:54:23;;;;;;;6.47;4.97;;;8.70;1.00;;;;;;5055198;28;20198;-83
2023/04/19 06:56:49;;;;;;;5.17;4.60;;;8.70;99.90;;;;;;5073474;28;20178;-84
2023/04/19 06:59:19;;;;;;;6.17;4.80;;;8.70;1.00;;;;;;5074884;28;20187;-84
2023/04/19 07:01:46;;;;;;;5.23;4.47;;;8.70;99.90;;;;;;5072636;28;20179;-85
2023/04/19 07:04:12;;;;;;;6.03;4.70;;;8.80;1.00;;;;;;5054833;28;20202;-86
2023/04/19 07:06:38;;;;;;;8.27;4.87;;;8.80;99.90;;;;;;5073803;28;20199;-83
2023/04/19 07:09:06;;;;;;;7.80;4.73;;;8.70;99.90;;;;;;5059380;28;20687;-85
2023/04/19 07:11:32;;;;;;;7.03;5.00;;;8.60;99.90;;;;;;5057011;28;20257;-86
2023/04/19 07:13:59;;;;;;;7.30;4.90;;;8.60;99.90;;;;;;5075471;28;20203;-86
2023/04/19 07:16:25;;;;;;;7.03;5.07;;;8.50;1.00;;;;;;5073772;28;20188;-86
2023/04/19 07:18:51;;;;;;;7.40;5.17;;;8.40;42.90;;;;;;5074083;28;20269;-86
2023/04/19 07:21:17;;;;;;;6.70;4.83;;;8.40;53.60;;;;;;5055983;28;20245;-85
2023/04/19 07:23:42;;;;;;;7.37;5.00;;;8.30;1.00;;;;;;5056485;28;20235;-86
2023/04/19 07:26:08;;;;;;;6.73;5.03;;;8.40;99.90;;;;;;5074239;28;20169;-85
2023/04/19 07:28:34;;;;;;;7.67;5.17;;;8.50;99.90;;;;;;5073374;28;20181;-86
2023/04/19 07:31:02;;;;;;;7.07;5.60;;;8.40;99.90;;;;;;5073589;28;20702;-85
2023/04/19 07:33:28;;;;;;;9.13;5.67;;;8.30;37.10;;;;;;5055787;28;20307;-86
2023/04/19 07:35:54;;;;;;;8.27;5.17;;;8.30;24.50;;;;;;5073206;28;20668;-84
2023/04/19 07:38:19;;;;;;;6.77;5.50;;;8.20;99.90;;;;;;5055069;28;20169;-86
2023/04/19 07:40:45;;;;;;;7.83;5.20;;;8.30;1.00;;;;;;5076706;28;20180;-85
2023/04/19 07:43:11;;;;;;;8.70;5.90;;;8.40;1.00;;;;;;5077513;28;20227;-86
2023/04/19 07:45:37;;;;;;;9.50;5.20;;;8.60;99.90;;;;;;5092678;28;20182;-86
2023/04/19 07:48:03;;;;;;;6.80;4.90;;;8.60;1.00;;;;;;5075024;28;20250;-85
2023/04/19 07:50:28;;;;;;;8.10;5.90;;;8.40;1.00;;;;;;5091455;28;20190;-86
2023/04/19 07:52:55;;;;;;;7.67;5.43;;;8.40;1.00;;;;;;5060480;28;20198;-86
2023/04/19 07:55:23;;;;;;;7.77;5.17;;;8.50;99.90;;;;;;5072860;28;20168;-86
2023/04/19 07:57:49;;;;;;;7.17;5.00;;;8.50;1.00;;;;;;5055629;28;20174;-86
2023/04/19 08:00:16;;;;;;;7.17;4.87;;;8.60;1.00;;;;;;5055300;28;20257;-85
2023/04/19 08:02:43;;;;;;;5.87;4.80;;;8.70;1.00;;;;;;5057696;28;20275;-86
2023/04/19 08:05:09;;;;;;;7.57;4.90;;;8.90;99.90;;;;;;5076433;28;20181;-86
2023/04/19 08:07:35;;;;;;;8.07;5.27;;;8.90;1.00;;;;;;5083354;28;20198;-86
2023/04/19 08:10:01;;;;;;;9.53;5.13;;;9.00;1.00;;;;;;5090552;28;20170;-86
2023/04/19 08:12:26;;;;;;;6.37;4.60;;;9.00;1.00;;;;;;5095405;28;20197;-86
2023/04/19 08:14:52;;;;;;;6.50;4.53;;;9.20;1.00;;;;;;5076965;28;20257;-86
2023/04/19 08:17:20;;;;;;;8.77;4.27;;;9.40;99.90;;;;;;5094872;28;20176;-86
2023/04/19 08:19:48;;;;;;;4.97;4.13;;;9.60;1.00;;;;;;5065131;28;20177;-86
2023/04/19 08:22:15;;;;;;;5.30;3.87;;;9.50;99.90;;;;;;5074154;28;20198;-86
2023/04/19 08:24:41;;;;;;;4.50;3.97;;;9.60;99.90;;;;;;5077060;28;20214;-86
2023/04/19 08:27:08;;;;;;;5.37;3.60;;;9.60;1.00;;;;;;5076591;28;20203;-85
2023/04/19 08:29:34;;;;;;;5.63;4.00;;;9.60;1.00;;;;;;5076618;28;20185;-87
2023/04/19 08:32:00;;;;;;;5.33;3.97;;;9.60;1.00;;;;;;5076453;28;20174;-86
2023/04/19 08:34:26;;;;;;;5.37;3.40;;;9.60;99.90;;;;;;5076733;28;20231;-87
2023/04/19 08:36:52;;;;;;;5.83;3.53;;;9.70;99.90;;;;;;5087092;28;20194;-86
2023/04/19 08:39:17;;;;;;;4.40;3.47;;;10.00;99.90;;;;;;5074231;28;20196;-86
2023/04/19 08:41:43;;;;;;;4.37;3.57;;;10.10;99.90;;;;;;5076396;28;20179;-85
2023/04/19 08:44:11;;;;;;;5.73;3.47;;;10.20;99.90;;;;;;5076429;28;20642;-86
2023/04/19 08:46:37;;;;;;;3.40;2.80;;;10.20;1.00;;;;;;5094469;28;20198;-86
2023/04/19 08:49:04;;;;;;;5.60;2.87;;;10.20;1.00;;;;;;5076491;28;20168;-86
2023/04/19 08:51:31;;;;;;;3.23;2.93;;;10.30;1.00;;;;;;5094458;28;20172;-86
2023/04/19 08:53:58;;;;;;;4.37;3.10;;;10.50;1.00;;;;;;5094259;28;20195;-86
2023/04/19 08:56:25;;;;;;;2.77;2.37;;;10.60;99.90;;;;;;5076136;28;20167;-86
2023/04/19 08:58:51;;;;;;;4.27;2.60;;;10.80;99.90;;;;;;5076485;28;20180;-85
2023/04/19 09:01:16;;;;;;;4.73;2.60;;;10.70;99.90;;;;;;5093946;28;20164;-85
2023/04/19 09:03:46;;;;;;;2.50;2.10;;;10.80;99.90;;;;;;5094334;28;20268;-85
2023/04/19 09:06:12;;;;;;;2.63;1.80;;;11.00;99.90;;;;;;5076205;28;20180;-85
2023/04/19 09:08:39;;;;;;;2.00;1.80;;;11.00;35.90;;;;;;5075857;28;20213;-86
2023/04/19 09:11:05;;;;;;;3.10;2.03;;;11.10;23.70;;;;;;5093938;28;20184;-85
2023/04/19 09:13:31;;;;;;;2.23;2.00;;;11.10;67.80;;;;;;5075485;28;20206;-86
2023/04/19 09:15:59;;;;;;;2.00;1.70;;;11.10;76.60;;;;;;5094141;28;20182;-84
2023/04/19 09:18:25;;;;;;;2.93;2.20;;;11.20;6.20;;;;;;5075968;28;20225;-86
2023/04/19 09:20:56;;;;;;;2.60;2.10;;;11.40;1.00;;;;;;5075714;28;20176;-85
2023/04/19 09:23:24;;;;;;;2.23;1.83;;;11.60;1.00;;;;;;5075560;28;20192;-86
2023/04/19 09:26:01;;;;;;;2.83;2.03;;;11.70;1.00;;;;;;5093678;28;20594;-86
2023/04/19 09:28:27;;;;;;;2.00;1.60;;;11.50;1.00;;;;;;5093754;28;20203;-86
2023/04/19 09:30:55;;;;;;;2.60;1.70;;;11.30;1.00;;;;;;5075957;28;20180;-87
2023/04/19 09:33:35;;;;;;;2.47;1.80;;;11.30;1.00;;;;;;5093670;28;20211;-87
2023/04/19 09:36:01;;;;;;;2.17;1.70;;;11.40;1.00;;;;;;5093662;28;20647;-86
2023/04/19 09:38:27;;;;;;;2.67;2.10;;;11.40;1.00;;;;;;5075403;28;20690;-86
2023/04/19 09:41:05;;;;;;;2.67;1.90;;;11.40;1.00;;;;;;5093214;28;20181;-86
2023/04/19 09:43:31;;;;;;;4.00;1.90;;;11.50;1.00;;;;;;5075285;28;20639;-86
2023/04/19 09:45:56;;;;;;;2.37;1.77;;;11.50;1.00;;;;;;5075553;28;20203;-85
2023/04/19 09:48:22;;;;;;;2.70;1.97;;;11.70;1.00;;;;;;5075855;28;20207;-86
2023/04/19 09:50:58;;;;;;;2.67;1.97;;;12.10;1.00;;;;;;5075180;28;20259;-86
2023/04/19 09:53:25;;;;;;;2.07;1.80;;;12.40;1.00;;;;;;5076693;28;20200;-85
2023/04/19 09:55:51;;;;;;;2.33;1.87;;;12.60;1.00;;;;;;5095143;28;20317;-84
2023/04/19 09:58:18;;;;;;;2.47;2.10;;;12.50;1.00;;;;;;5060271;28;20271;-85
2023/04/19 10:00:46;;;;;;;2.97;1.80;;;12.20;1.00;;;;;;5056701;28;20180;-86
2023/04/19 10:03:16;;;;;;;3.97;1.87;;;12.30;1.00;;;;;;5058220;28;20212;-82
2023/04/19 10:05:43;;;;;;;3.50;1.97;;;12.30;1.00;;;;;;5057064;28;20177;-85
2023/04/19 10:08:10;;;;;;;2.20;1.87;;;12.50;1.00;;;;;;5075307;28;20222;-86
2023/04/19 10:10:36;;;;;;;2.83;1.90;;;12.60;1.00;;;;;;5075331;28;20541;-85
2023/04/19 10:13:05;;;;;;;2.23;1.80;;;12.60;1.00;;;;;;5086793;28;20192;-86
2023/04/19 10:15:32;;;;;;;2.30;1.50;;;12.30;1.00;;;;;;5069804;28;20706;-87
2023/04/19 10:17:59;;;;;;;2.60;1.63;;;12.30;1.00;;;;;;5077455;28;20188;-83
2023/04/19 10:20:32;;;;;;;3.43;1.67;;;12.60;1.00;;;;;;5072762;28;20211;-84
2023/04/19 10:22:59;;;;;;;1.90;1.57;;;12.70;1.00;;;;;;5086559;28;20215;-84
2023/04/19 10:25:28;;;;;;;2.03;1.67;;;12.90;1.00;;;;;;5097512;28;20229;-85
2023/04/19 10:27:54;;;;;;;2.00;1.73;;;13.20;1.00;;;;;;5081001;28;20286;-83
2023/04/19 10:30:27;;;;;;;2.93;1.73;;;13.30;1.00;;;;;;5080634;28;20176;-83
2023/04/19 10:32:57;;;;;;;1.67;1.50;;;13.80;1.00;;;;;;5079092;28;20169;-83
2023/04/19 10:35:32;;;;;;;2.37;1.70;;;14.00;1.00;;;;;;5081211;28;20211;-84
2023/04/19 10:38:15;;;;;;;2.00;1.63;;;13.90;1.00;;;;;;5081128;28;20179;-82
2023/04/19 10:40:59;;;;;;;3.93;1.60;;;13.90;1.00;;;;;;5100575;28;20225;-83
2023/04/19 10:43:33;;;;;;;2.50;1.80;;;14.20;1.00;;;;;;5120577;22;20247;-82
2023/04/19 10:46:05;;;;;;;1.83;1.50;;;14.10;1.00;;;;;;5082246;28;20172;-84
2023/04/19 10:48:32;;;;;;;2.23;1.67;;;13.90;1.00;;;;;;5083372;28;20196;-83
2023/04/19 10:51:30;;;;;;;2.13;1.57;;;14.00;1.00;;;;;;5090886;28;20225;-82
2023/04/19 10:53:59;;;;;;;2.27;1.70;;;14.20;1.00;;;;;;5068265;28;20192;-82
2023/04/19 10:56:34;;;;;;;1.80;1.40;;;14.10;1.00;;;;;;5092523;28;20185;-83
2023/04/19 10:59:13;;;;;;;2.30;1.63;;;14.10;1.00;;;;;;5090881;28;20168;-82
2023/04/19 11:01:42;;;;;;;4.20;1.90;;;14.00;99.90;;;;;;5090697;28;20191;-82
2023/04/19 11:04:09;;;;;;;3.00;1.50;;;14.00;99.90;;;;;;5092020;28;20189;-82
2023/04/19 11:06:37;;;;;;;2.23;1.40;;;14.10;99.90;;;;;;5090836;28;20217;-83
2023/04/19 11:09:05;;;;;;;2.50;1.60;;;14.20;99.90;;;;;;5088941;28;20172;-83
2023/04/19 11:11:35;;;;;;;3.37;1.70;;;14.10;99.90;;;;;;5070626;28;20235;-83
2023/04/19 11:14:03;;;;;;;1.83;1.70;;;14.20;99.90;;;;;;5071706;28;20287;-82
2023/04/19 11:16:29;;;;;;;2.30;1.80;;;14.50;99.90;;;;;;5070693;28;20177;-84
2023/04/19 11:18:55;;;;;;;2.67;1.87;;;14.50;99.90;;;;;;5070724;28;20651;-84
2023/04/19 11:21:21;;;;;;;1.90;1.70;;;14.50;99.90;;;;;;5070454;28;20212;-83
2023/04/19 11:23:48;;;;;;;2.37;1.70;;;14.40;99.90;;;;;;5071776;28;20275;-82
2023/04/19 11:26:14;;;;;;;2.00;1.80;;;14.00;99.90;;;;;;5072188;28;20173;-83
2023/04/19 11:28:39;;;;;;;2.13;1.93;;;14.40;99.90;;;;;;5071536;28;20235;-83
2023/04/19 11:31:05;;;;;;;3.23;1.87;;;14.70;99.90;;;;;;5071795;28;20550;-84
2023/04/19 11:33:35;;;;;;;2.43;1.70;;;15.20;99.90;;;;;;5070270;28;20215;-83
2023/04/19 11:36:00;;;;;;;3.23;1.80;;;15.10;99.90;;;;;;5071807;28;20192;-83
2023/04/19 11:38:30;;;;;;;2.67;1.77;;;15.60;99.90;;;;;;5074319;28;20181;-83
2023/04/19 11:41:03;;;;;;;2.80;1.70;;;15.70;99.90;;;;;;5074042;28;20272;-84
2023/04/19 11:43:36;;;;;;;1.97;1.70;;;15.40;99.90;;;;;;5069000;28;20685;-82
2023/04/19 11:46:09;;;;;;;2.57;1.70;;;15.40;99.90;;;;;;5073090;28;20206;-83
2023/04/19 11:48:35;;;;;;;2.10;1.60;;;15.40;99.90;;;;;;5063792;28;20203;-83
2023/04/19 11:51:01;;;;;;;3.73;1.73;;;15.00;99.90;;;;;;5008338;28;20204;-86
2023/04/19 11:53:29;;;;;;;3.17;1.70;;;15.30;99.90;;;;;;5075731;28;20204;-82
2023/04/19 11:56:04;;;;;;;2.53;2.00;;;15.00;99.90;;;;;;5064062;28;20811;-81
2023/04/19 11:58:56;;;;;;;4.00;2.20;;;15.10;99.90;;;;;;4994743;28;20217;-81
2023/04/19 12:01:23;;;;;;;2.77;1.80;;;15.20;99.90;;;;;;5067994;28;20183;-82
2023/04/19 12:03:55;;;;;;;2.97;1.83;;;15.20;99.90;;;;;;5003039;28;20199;-83
2023/04/19 12:06:26;;;;;;;3.17;2.10;;;15.40;99.90;;;;;;5061770;28;20176;-82
2023/04/19 12:08:53;;;;;;;3.73;2.10;;;15.70;99.90;;;;;;5072074;28;20174;-82
2023/04/19 12:11:23;;;;;;;2.30;2.10;;;15.70;99.90;;;;;;5072945;28;20586;-83
2023/04/19 12:14:06;;;;;;;2.57;1.97;;;15.80;99.90;;;;;;4995478;28;20277;-82
2023/04/19 12:16:32;;;;;;;2.83;2.00;;;16.20;99.90;;;;;;4992635;28;20217;-84
2023/04/19 12:18:57;;;;;;;2.30;2.10;;;16.20;99.90;;;;;;5060518;28;20163;-84
2023/04/19 12:21:31;;;;;;;2.50;2.20;;;16.50;99.90;;;;;;4992530;28;20181;-82
2023/04/19 12:23:59;;;;;;;2.27;2.00;;;16.40;99.90;;;;;;4992465;28;20195;-86
2023/04/19 12:26:27;;;;;;;2.67;2.10;;;16.00;99.90;;;;;;5059984;28;20704;-82
2023/04/19 12:28:56;;;;;;;2.43;2.20;;;15.30;99.90;;;;;;5059757;28;20820;-87
2023/04/19 12:31:22;;;;;;;2.20;1.77;;;15.10;99.90;;;;;;5059608;28;20169;-86
2023/04/19 12:33:49;;;;;;;4.03;2.00;;;15.60;99.90;;;;;;4991845;28;20202;-84
2023/04/19 12:36:14;;;;;;;2.40;1.87;;;15.90;99.90;;;;;;5059630;28;20584;-84
2023/04/19 12:38:40;;;;;;;4.00;2.00;;;16.50;99.90;;;;;;5059943;28;20646;-85
2023/04/19 12:41:06;;;;;;;2.20;2.00;;;16.40;99.90;;;;;;4991978;28;20183;-86
2023/04/19 12:43:31;;;;;;;2.33;1.90;;;16.40;99.90;;;;;;4991604;28;20245;-86
2023/04/19 12:45:58;;;;;;;2.57;1.90;;;16.10;99.90;;;;;;5059392;28;20172;-84
2023/04/19 12:48:24;;;;;;;2.20;2.00;;;16.10;99.90;;;;;;4991041;28;20200;-85
2023/04/19 12:50:50;;;;;;;2.43;2.07;;;16.10;99.90;;;;;;5059058;28;20176;-85